Jackson, MI (49202)

6:57 PM EDT on March 27, 2015 (GMT -0400)
Jeffrey Roush Photography - Jackson, MI | | Change Station
CLOSE
Current Station
Personal Weather Station
Location: Jackson, MI
Elevation: 986 ft
Nearby Weather Stations

Elev 986 ft 42.26 °N, 84.43 °W | Updated 8 seconds ago

Mostly Cloudy
Mostly Cloudy
24.8 °F
Feels Like 17 °F
N
6.9
Wind Variable Wind from NE
Gusts 12.1 mph

Today
High -- | Low -- °F
--% Chance of Precip.
Yesterday
High -- | Low -- °F
Precip. -- in
7:29 AM 7:57 PM
First Quarter, 56% visible
Pressure 30.07 in
Visibility 10.0 miles
Clouds Mostly Cloudy 6000 ft
Windchill 17 °F
Dew Point -4 °F
Humidity 28%
Rainfall 0.00 in
Snow Depth Not available.
UV 1 out of 12
Pollen 1.50 out of 12
Air Quality Not available.
Flu Activity Not available.
METAR KJXN 272156Z 34007KT 10SM BKN060 M03/M18 A3003 RMK AO2 SLP182 T10281178

More Conditions Fewer Conditions

Pressure 30.07 in
Visibility 10.0 miles
Clouds Mostly Cloudy 6000 ft
Windchill 17 °F
Dew Point -4 °F
Humidity 28%
Rainfall 0.00 in
Snow Depth Not available.
UV 1 out of 12
Pollen 1.50 out of 12
Air Quality Not available.
Flu Activity Not available.
METAR KJXN 272156Z 34007KT 10SM BKN060 M03/M18 A3003 RMK AO2 SLP182 T10281178

More Conditions Fewer Conditions

10-Day Weather Forecast

Almanac

Astronomy

Mar. 27, 2015 Rise Set
Actual Time
Civil Twilight
Nautical Twilight
Astronomical Twilight
Moon
Length of Visible Light
Length of Day
Tomorrow will be .
, % of the Moon is Illuminated

Today's Extremes

State Highs State Lows

Community

WunderPhotos

Upload Photos

1,808,856 photos uploaded!

WunderBlogs® & News

Nearby

Air Quality

  Air Quality AQ Index Pollutant
Not available.

Snow Depth

Station Depth Elevation

Earthquake Activity

City Distance Mag. Time & Date
Minimum magnitude displayed is 2.5.

Coastal Water Temperatures

Place Temperature

Stations

Nearby Weather Stations

Station Location Temp. Windchill Dew Point Humidity Wind Precip. Elev Updated Type